Weather at Guarulhos - Governador André Franco Montoro International Airport

Public forecast

Using degrees Celsius for public forecast. Weather courtesy of forecast.io.

Current aviation weather report (METAR) for Guarulhos - Governador André Franco Montoro International Airport

Report is more than 6 hours old.

2022/11/14 15:00 (retrieved 2 years ago)

SBGR 141500Z 04008KT CAVOK 23/19 Q1013

Aviation forecast (TAF) for Guarulhos - Governador André Franco Montoro International Airport

Forecast is more than 12 hours old.

2023/02/22 18:00 (retrieved 1 year ago)

TAF SBGR 221630Z 2218/2324 30005KT 9999 SCT035 FEW040TCU TN19/2309Z TX27/2317Z TEMPO 2219/2223 15005KT 8000 TSRA BKN020 FEW040CB BECMG 2223/2301 10005KT BKN010 BECMG 2312/2314 32007KT SCT030 BECMG 2316/2318 BKN030 FEW040TCU TEMPO 2318/2323 TSRA SCT010 BKN030 FEW040CB RMK PGQ